• Join FlightAware (Why Join?)
  • Login
  • US Flag 
04:23PM EDT


 

Airport Tracker/Info


-or-


 

Live Flight TrackerFlight Track Log ✈ CTL13 ✈ 05-Apr-2013 ✈ KBKL - KEYE

Flight Track Log - Related Links

Times and Time Zones

All times are in EDT time to prevent confusion due to time zone crossing. See the CTL13 flight status page for this flight to view local times or setup timezone preferences in your user account.

Time Position Orientation Groundspeed Altitude Reporting Facility
EDT Latitude Longitude Course Direction KTS MPH feet Rate Location/Type
06:59PM 41.5272 -81.6842 314° West 119 137 1,100  Level Cleveland Center
06:59PM 41.5417 -81.7039 314° West 133 153 1,800 1,680 Climbing Cleveland Center
07:00PM 41.5603 -81.7319 312° West 109 125 3,700 1,680 Climbing Cleveland Center
07:01PM 41.5767 -81.7544 314° West 87 100 5,100 1,260 Climbing Cleveland Center
07:02PM 41.5719 -81.7989 262° West 118 136 6,300 1,080 Climbing Cleveland Center
07:03PM 41.5675 -81.8403 262° West 113 130 7,500 780 Climbing Cleveland Center
07:04PM 41.5503 -81.8900 245° Southwest 147 169 8,000 240 Climbing Cleveland Center
07:05PM 41.5308 -81.9394 242° Southwest 165 190 8,000  Level Cleveland Center
07:06PM 41.5094 -81.9917 241° Southwest 159 183 8,000  Level Cleveland Center
07:07PM 41.4900 -82.0439 244° Southwest 157 181 8,000  Level Cleveland Center
07:08PM 41.4706 -82.0933 242° Southwest 157 181 8,000  Level Cleveland Center
07:09PM 41.4447 -82.1564 241° Southwest 158 182 8,000  Level Cleveland Center
07:10PM 41.4253 -82.2086 244° Southwest 157 181 8,000  Level Cleveland Center
07:12PM 41.4014 -82.2717 243° Southwest 159 183 8,000  Level Cleveland Center
07:14PM 41.3418 -82.3528 226° Southwest  Level FlightAware Approximate
07:17PM 41.2967 -82.5311 240° Southwest 154 177 8,000  Level Indianapolis Center
07:18PM 41.2761 -82.5831 242° Southwest 157 181 8,000  Level Indianapolis Center
07:19PM 41.2536 -82.6342 240° Southwest 159 183 8,000  Level Indianapolis Center
07:20PM 41.2319 -82.6847 240° Southwest 158 182 8,000  Level Indianapolis Center
07:21PM 41.2062 -82.7292 245° Southwest  Level Estimated
07:21PM 41.2114 -82.7358 242° Southwest 156 180 8,000  Level Indianapolis Center
07:22PM 41.1838 -82.7808 240° Southwest  Level FlightAware Approximate
07:22PM 41.1914 -82.7861 242° Southwest 154 177 8,100  Level Indianapolis Center
07:23PM 41.1708 -82.8383 242° Southwest 157 181 8,000 -60 Descending Indianapolis Center
07:24PM 41.1458 -82.8992 241° Southwest 159 183 8,000  Level Indianapolis Center
07:25PM 41.1256 -82.9511 243° Southwest 158 182 8,100  Climbing Indianapolis Center
07:26PM 41.1056 -83.0042 243° Southwest 158 182 8,000 -60 Descending Indianapolis Center
07:27PM 41.0836 -83.0550 240° Southwest 158 182 8,000  Level Indianapolis Center
07:28PM 41.0636 -83.1072 243° Southwest 157 181 8,100 -60 Climbing Indianapolis Center
07:29PM 41.0428 -83.1586 242° Southwest 157 181 7,900 -60 Descending Indianapolis Center
07:30PM 41.0214 -83.2111 242° Southwest 159 183 8,000  Climbing Indianapolis Center
07:31PM 40.9997 -83.2636 241° Southwest 161 185 8,000 -60 Level Indianapolis Center
07:32PM 40.9778 -83.3144 240° Southwest 159 183 7,900  Descending Indianapolis Center
07:33PM 40.9528 -83.3725 240° Southwest 156 180 8,000  Climbing Indianapolis Center
07:34PM 40.9325 -83.4233 242° Southwest 154 177 7,900  Descending Indianapolis Center
07:35PM 40.9119 -83.4736 242° Southwest 156 180 8,000  Climbing Indianapolis Center
07:36PM 40.8894 -83.5269 241° Southwest 157 181 7,900  Descending Indianapolis Center
07:38PM 40.8689 -83.5761 241° Southwest 153 176 8,000  Climbing Indianapolis Center
07:39PM 40.8478 -83.6267 241° Southwest 155 178 8,000  Level Indianapolis Center
07:40PM 40.8283 -83.6775 243° Southwest 154 177 8,000  Level Indianapolis Center
07:41PM 40.8067 -83.7286 241° Southwest 157 181 8,000  Level Indianapolis Center
07:42PM 40.7856 -83.7792 241° Southwest 157 181 8,000  Level Indianapolis Center
07:43PM 40.7656 -83.8317 243° Southwest 159 183 8,000  Level Indianapolis Center
07:44PM 40.7386 -83.8919 239° Southwest 162 186 8,000  Level Indianapolis Center
07:45PM 40.7172 -83.9428 241° Southwest 159 183 8,000  Level Indianapolis Center
07:46PM 40.6989 -83.9964 246° West 159 183 8,000  Level Indianapolis Center
07:47PM 40.6794 -84.0481 244° Southwest 157 181 8,000  Level Indianapolis Center
07:48PM 40.6619 -84.1011 247° West 156 180 8,000  Level Indianapolis Center
07:49PM 40.6425 -84.1533 244° Southwest 157 181 8,000  Level Indianapolis Center
07:50PM 40.6253 -84.1967 242° Southwest 157 181 8,000  Level Indianapolis Center
07:50PM 40.6231 -84.2058 252° West 157 181 8,000  Level Indianapolis Center
07:51PM 40.6064 -84.2489 243° Southwest 158 182 8,000  Level Indianapolis Center
07:51PM 40.5997 -84.2675 245° Southwest 159 183 8,000  Level Indianapolis Center
07:52PM 40.5878 -84.3014 245° Southwest 160 184 8,000  Level Indianapolis Center
07:52PM 40.5803 -84.3186 240° Southwest 157 181 8,000  Level Indianapolis Center
07:52PM 40.5692 -84.3483 244° Southwest 160 184 8,000  Level Indianapolis Center
07:53PM 40.5603 -84.3714 243° Southwest 158 182 8,000  Level Indianapolis Center
07:54PM 40.5481 -84.4033 243° Southwest 159 183 8,000  Level Indianapolis Center
07:54PM 40.5422 -84.4247 250° West 158 182 8,000  Level Indianapolis Center
07:55PM 40.5294 -84.4528 239° Southwest 160 184 8,000 -120 Level Indianapolis Center
07:55PM 40.5225 -84.4781 250° West 159 183 7,900  Descending Indianapolis Center
07:56PM 40.5078 -84.5131 241° Southwest 160 184 8,000 180 Climbing Indianapolis Center
07:56PM 40.5028 -84.5322 251° West 161 185 8,100 -120 Climbing Indianapolis Center
07:57PM 40.4889 -84.5681 243° Southwest 163 188 7,900 -120 Descending Indianapolis Center
07:57PM 40.4839 -84.5858 250° West 162 186 8,000 60 Climbing Indianapolis Center
07:58PM 40.4697 -84.6203 242° Southwest 161 185 8,000 60 Level Indianapolis Center
07:58PM 40.4639 -84.6383 247° West 160 184 8,100 60 Climbing Indianapolis Center
07:59PM 40.4431 -84.7022 247° West 161 185 8,100  Level Indianapolis Center
08:00PM 40.4236 -84.7558 245° Southwest 161 185 8,100  Level Indianapolis Center
08:01PM 40.4153 -84.7744 240° Southwest 161 185 8,100  Level Indianapolis Center
08:01PM 40.4025 -84.8089 244° Southwest 162 186 8,100  Level Indianapolis Center
08:02PM 40.3939 -84.8292 241° Southwest 164 189 8,100  Level Indianapolis Center
08:02PM 40.3814 -84.8628 244° Southwest 166 191 8,100  Level Indianapolis Center
08:03PM 40.3728 -84.8808 238° Southwest 165 190 8,100  Level Indianapolis Center
08:03PM 40.3581 -84.9192 243° Southwest 164 189 8,100  Level Indianapolis Center
08:04PM 40.3372 -84.9731 243° Southwest 164 189 8,100  Level Indianapolis Center
08:05PM 40.3139 -85.0314 242° Southwest 164 189 8,100 -60 Level Indianapolis Center
08:06PM 40.2936 -85.0789 241° Southwest 163 188 8,000 -120 Descending Indianapolis Center
08:07PM 40.2872 -85.0958 244° Southwest 165 190 8,000 60 Level Indianapolis Center
08:07PM 40.2722 -85.1328 242° Southwest 166 191 8,100 60 Climbing Indianapolis Center
08:08PM 40.2631 -85.1581 245° Southwest 164 189 8,100  Level Indianapolis Center
08:08PM 40.2542 -85.1875 248° West 163 188 8,100  Level Indianapolis Center
08:09PM 40.2433 -85.2181 245° Southwest 165 190 8,100  Level Indianapolis Center
08:09PM 40.2328 -85.2417 240° Southwest 165 190 8,100  Level Indianapolis Center
08:11PM 40.2128 -85.2956 244° Southwest 164 189 8,100  Level Indianapolis Center
08:12PM 40.1883 -85.3594 243° Southwest 166 191 8,100 -300 Level Indianapolis Center
08:13PM 40.1656 -85.4161 242° Southwest 173 199 7,500 -600 Descending Indianapolis Center
08:14PM 40.1436 -85.4753 244° Southwest 179 206 6,900 -600 Descending Indianapolis Center
08:15PM 40.1192 -85.5358 242° Southwest 183 211 6,300 -540 Descending Indianapolis Center
08:16PM 40.0967 -85.5972 244° Southwest 184 212 5,800 -480 Descending Indianapolis Center
08:17PM 40.0736 -85.6558 243° Southwest 183 211 5,400 -540 Descending Indianapolis Center
08:18PM 40.0500 -85.7161 243° Southwest 183 211 4,800 -540 Descending Indianapolis Center
08:19PM 40.0278 -85.7761 244° Southwest 183 211 4,300 -360 Descending Indianapolis Center
08:20PM 40.0042 -85.8378 243° Southwest 186 214 4,100 -300 Descending Indianapolis Center
08:21PM 39.9783 -85.9033 243° Southwest 179 206 3,800 -420 Descending Indianapolis Center
08:22PM 39.9542 -85.9636 242° Southwest 180 207 3,300 -360 Descending Indianapolis Center
08:23PM 39.9294 -86.0272 243° Southwest 184 212 3,100 -240 Descending Indianapolis Center